sensor_id;sensor_type;location;lat;lon;timestamp;P1;durP1;ratioP1;P2;durP2;ratioP2
14789;SDS011;7486;51.010;10.366;2023-02-15T00:01:48;10.00;;;7.70;;
14789;SDS011;7486;51.010;10.366;2023-02-15T00:04:16;10.77;;;8.40;;
14789;SDS011;7486;51.010;10.366;2023-02-15T00:06:45;10.87;;;7.73;;
14789;SDS011;7486;51.010;10.366;2023-02-15T00:09:12;11.33;;;7.90;;
14789;SDS011;7486;51.010;10.366;2023-02-15T00:11:39;10.87;;;7.83;;
14789;SDS011;7486;51.010;10.366;2023-02-15T00:14:08;9.90;;;7.47;;
14789;SDS011;7486;51.010;10.366;2023-02-15T00:16:37;10.17;;;7.57;;
14789;SDS011;7486;51.010;10.366;2023-02-15T00:19:08;11.03;;;7.87;;
14789;SDS011;7486;51.010;10.366;2023-02-15T00:21:40;10.13;;;8.17;;
14789;SDS011;7486;51.010;10.366;2023-02-15T00:24:08;10.07;;;7.57;;
14789;SDS011;7486;51.010;10.366;2023-02-15T00:26:37;9.53;;;7.33;;
14789;SDS011;7486;51.010;10.366;2023-02-15T00:29:06;11.87;;;7.93;;
14789;SDS011;7486;51.010;10.366;2023-02-15T00:31:34;10.57;;;7.77;;
14789;SDS011;7486;51.010;10.366;2023-02-15T00:34:04;10.60;;;8.00;;
14789;SDS011;7486;51.010;10.366;2023-02-15T00:36:48;9.87;;;7.60;;
14789;SDS011;7486;51.010;10.366;2023-02-15T00:39:24;11.03;;;8.23;;
14789;SDS011;7486;51.010;10.366;2023-02-15T00:41:56;10.60;;;7.70;;
14789;SDS011;7486;51.010;10.366;2023-02-15T00:44:30;10.80;;;8.17;;
14789;SDS011;7486;51.010;10.366;2023-02-15T00:47:04;10.17;;;7.47;;
14789;SDS011;7486;51.010;10.366;2023-02-15T00:49:40;9.63;;;7.13;;
14789;SDS011;7486;51.010;10.366;2023-02-15T00:52:33;9.87;;;7.47;;
14789;SDS011;7486;51.010;10.366;2023-02-15T00:55:07;9.90;;;7.83;;
14789;SDS011;7486;51.010;10.366;2023-02-15T00:57:34;10.17;;;7.90;;
14789;SDS011;7486;51.010;10.366;2023-02-15T01:00:01;10.70;;;7.77;;
14789;SDS011;7486;51.010;10.366;2023-02-15T01:02:27;10.63;;;8.20;;
14789;SDS011;7486;51.010;10.366;2023-02-15T01:04:54;11.20;;;8.30;;
14789;SDS011;7486;51.010;10.366;2023-02-15T01:07:21;10.20;;;7.50;;
14789;SDS011;7486;51.010;10.366;2023-02-15T01:09:48;10.07;;;7.57;;
14789;SDS011;7486;51.010;10.366;2023-02-15T01:12:15;10.67;;;8.10;;
14789;SDS011;7486;51.010;10.366;2023-02-15T01:14:42;11.47;;;8.13;;
14789;SDS011;7486;51.010;10.366;2023-02-15T01:17:08;11.03;;;7.90;;
14789;SDS011;7486;51.010;10.366;2023-02-15T01:19:37;12.80;;;8.73;;
14789;SDS011;7486;51.010;10.366;2023-02-15T01:22:05;11.03;;;7.67;;
14789;SDS011;7486;51.010;10.366;2023-02-15T01:24:34;10.47;;;7.93;;
14789;SDS011;7486;51.010;10.366;2023-02-15T01:27:01;11.60;;;8.13;;
14789;SDS011;7486;51.010;10.366;2023-02-15T01:29:29;12.53;;;9.07;;
14789;SDS011;7486;51.010;10.366;2023-02-15T01:31:56;11.27;;;8.20;;
14789;SDS011;7486;51.010;10.366;2023-02-15T01:34:24;12.20;;;8.37;;
14789;SDS011;7486;51.010;10.366;2023-02-15T01:36:50;11.13;;;8.50;;
14789;SDS011;7486;51.010;10.366;2023-02-15T01:39:17;10.57;;;7.80;;
14789;SDS011;7486;51.010;10.366;2023-02-15T01:41:44;11.27;;;7.97;;
14789;SDS011;7486;51.010;10.366;2023-02-15T01:47:12;10.93;;;8.00;;
14789;SDS011;7486;51.010;10.366;2023-02-15T01:49:49;11.10;;;7.77;;
14789;SDS011;7486;51.010;10.366;2023-02-15T01:52:26;11.93;;;8.47;;
14789;SDS011;7486;51.010;10.366;2023-02-15T01:54:53;11.23;;;7.73;;
14789;SDS011;7486;51.010;10.366;2023-02-15T01:57:22;10.53;;;7.87;;
14789;SDS011;7486;51.010;10.366;2023-02-15T01:59:54;11.43;;;7.80;;
14789;SDS011;7486;51.010;10.366;2023-02-15T02:02:22;10.40;;;7.50;;
14789;SDS011;7486;51.010;10.366;2023-02-15T02:04:52;12.30;;;7.97;;
14789;SDS011;7486;51.010;10.366;2023-02-15T02:07:24;11.53;;;7.60;;
14789;SDS011;7486;51.010;10.366;2023-02-15T02:09:54;11.43;;;8.17;;
14789;SDS011;7486;51.010;10.366;2023-02-15T02:12:22;12.90;;;8.87;;
14789;SDS011;7486;51.010;10.366;2023-02-15T02:14:51;12.40;;;8.20;;
14789;SDS011;7486;51.010;10.366;2023-02-15T02:37:12;10.57;;;8.07;;
14789;SDS011;7486;51.010;10.366;2023-02-15T02:39:52;10.30;;;7.77;;
14789;SDS011;7486;51.010;10.366;2023-02-15T02:42:29;12.20;;;8.57;;
14789;SDS011;7486;51.010;10.366;2023-02-15T02:45:25;12.90;;;8.67;;
14789;SDS011;7486;51.010;10.366;2023-02-15T02:47:56;11.87;;;8.23;;
14789;SDS011;7486;51.010;10.366;2023-02-15T02:50:48;12.47;;;8.43;;
14789;SDS011;7486;51.010;10.366;2023-02-15T02:53:15;13.03;;;9.10;;
14789;SDS011;7486;51.010;10.366;2023-02-15T03:01:03;12.67;;;8.53;;
14789;SDS011;7486;51.010;10.366;2023-02-15T03:03:41;11.80;;;8.50;;
14789;SDS011;7486;51.010;10.366;2023-02-15T03:06:14;12.50;;;8.47;;
14789;SDS011;7486;51.010;10.366;2023-02-15T03:08:47;12.77;;;8.40;;
14789;SDS011;7486;51.010;10.366;2023-02-15T03:11:16;13.70;;;8.97;;
14789;SDS011;7486;51.010;10.366;2023-02-15T03:13:43;13.00;;;9.13;;
14789;SDS011;7486;51.010;10.366;2023-02-15T03:16:13;13.73;;;9.00;;
14789;SDS011;7486;51.010;10.366;2023-02-15T03:18:48;14.00;;;8.60;;
14789;SDS011;7486;51.010;10.366;2023-02-15T03:21:24;12.20;;;8.20;;
14789;SDS011;7486;51.010;10.366;2023-02-15T03:24:01;13.07;;;9.00;;
14789;SDS011;7486;51.010;10.366;2023-02-15T03:26:50;15.63;;;9.60;;
14789;SDS011;7486;51.010;10.366;2023-02-15T03:29:18;13.90;;;9.33;;
14789;SDS011;7486;51.010;10.366;2023-02-15T03:31:51;14.83;;;9.30;;
14789;SDS011;7486;51.010;10.366;2023-02-15T03:34:23;14.17;;;9.63;;
14789;SDS011;7486;51.010;10.366;2023-02-15T03:36:58;15.47;;;9.23;;
14789;SDS011;7486;51.010;10.366;2023-02-15T03:42:51;15.80;;;9.13;;
14789;SDS011;7486;51.010;10.366;2023-02-15T03:45:35;14.70;;;9.53;;
14789;SDS011;7486;51.010;10.366;2023-02-15T03:48:04;14.97;;;9.10;;
14789;SDS011;7486;51.010;10.366;2023-02-15T03:50:32;15.23;;;9.93;;
14789;SDS011;7486;51.010;10.366;2023-02-15T03:53:04;15.13;;;9.73;;
14789;SDS011;7486;51.010;10.366;2023-02-15T03:55:34;15.47;;;9.53;;
14789;SDS011;7486;51.010;10.366;2023-02-15T03:58:02;15.43;;;9.93;;
14789;SDS011;7486;51.010;10.366;2023-02-15T04:00:29;14.53;;;9.60;;
14789;SDS011;7486;51.010;10.366;2023-02-15T04:05:49;15.00;;;9.90;;
14789;SDS011;7486;51.010;10.366;2023-02-15T04:08:15;13.43;;;9.13;;
14789;SDS011;7486;51.010;10.366;2023-02-15T04:10:42;15.23;;;9.67;;
14789;SDS011;7486;51.010;10.366;2023-02-15T04:13:09;16.27;;;10.30;;
14789;SDS011;7486;51.010;10.366;2023-02-15T04:15:35;15.00;;;9.83;;
14789;SDS011;7486;51.010;10.366;2023-02-15T04:18:02;14.17;;;9.50;;
14789;SDS011;7486;51.010;10.366;2023-02-15T04:20:29;15.23;;;9.80;;
14789;SDS011;7486;51.010;10.366;2023-02-15T04:22:56;15.87;;;9.70;;
14789;SDS011;7486;51.010;10.366;2023-02-15T04:25:23;14.63;;;9.07;;
14789;SDS011;7486;51.010;10.366;2023-02-15T04:27:50;17.07;;;10.83;;
14789;SDS011;7486;51.010;10.366;2023-02-15T04:30:20;16.53;;;9.70;;
14789;SDS011;7486;51.010;10.366;2023-02-15T04:32:48;17.83;;;10.33;;
14789;SDS011;7486;51.010;10.366;2023-02-15T04:35:15;13.53;;;9.57;;
14789;SDS011;7486;51.010;10.366;2023-02-15T04:37:42;15.53;;;9.83;;
14789;SDS011;7486;51.010;10.366;2023-02-15T04:40:11;14.80;;;10.33;;
14789;SDS011;7486;51.010;10.366;2023-02-15T04:42:39;14.03;;;9.80;;
14789;SDS011;7486;51.010;10.366;2023-02-15T04:45:06;17.70;;;10.47;;
14789;SDS011;7486;51.010;10.366;2023-02-15T04:47:33;17.37;;;10.93;;
14789;SDS011;7486;51.010;10.366;2023-02-15T04:50:00;15.13;;;10.10;;
14789;SDS011;7486;51.010;10.366;2023-02-15T04:52:27;14.83;;;9.47;;
14789;SDS011;7486;51.010;10.366;2023-02-15T04:54:54;18.03;;;11.10;;
14789;SDS011;7486;51.010;10.366;2023-02-15T04:57:21;15.97;;;10.23;;
14789;SDS011;7486;51.010;10.366;2023-02-15T04:59:48;15.77;;;10.27;;
14789;SDS011;7486;51.010;10.366;2023-02-15T05:02:14;15.70;;;10.57;;
14789;SDS011;7486;51.010;10.366;2023-02-15T05:04:41;15.23;;;9.60;;
14789;SDS011;7486;51.010;10.366;2023-02-15T05:07:08;15.87;;;10.20;;
14789;SDS011;7486;51.010;10.366;2023-02-15T05:09:35;15.90;;;9.37;;
14789;SDS011;7486;51.010;10.366;2023-02-15T05:12:01;15.97;;;10.47;;
14789;SDS011;7486;51.010;10.366;2023-02-15T05:14:28;15.80;;;9.77;;
14789;SDS011;7486;51.010;10.366;2023-02-15T05:16:55;14.77;;;9.47;;
14789;SDS011;7486;51.010;10.366;2023-02-15T05:19:22;16.63;;;10.10;;
14789;SDS011;7486;51.010;10.366;2023-02-15T05:21:49;15.00;;;10.10;;
14789;SDS011;7486;51.010;10.366;2023-02-15T05:24:15;14.47;;;9.13;;
14789;SDS011;7486;51.010;10.366;2023-02-15T05:26:42;15.83;;;10.27;;
14789;SDS011;7486;51.010;10.366;2023-02-15T05:29:09;17.03;;;10.57;;
14789;SDS011;7486;51.010;10.366;2023-02-15T05:31:37;18.43;;;10.30;;
14789;SDS011;7486;51.010;10.366;2023-02-15T05:34:04;14.83;;;9.73;;
14789;SDS011;7486;51.010;10.366;2023-02-15T05:36:31;15.17;;;9.87;;
14789;SDS011;7486;51.010;10.366;2023-02-15T05:38:58;15.10;;;9.70;;
14789;SDS011;7486;51.010;10.366;2023-02-15T05:41:24;15.23;;;10.37;;
14789;SDS011;7486;51.010;10.366;2023-02-15T05:43:51;15.10;;;10.27;;
14789;SDS011;7486;51.010;10.366;2023-02-15T05:46:18;16.37;;;10.27;;
14789;SDS011;7486;51.010;10.366;2023-02-15T05:48:44;14.83;;;9.30;;
14789;SDS011;7486;51.010;10.366;2023-02-15T05:51:11;13.93;;;9.60;;
14789;SDS011;7486;51.010;10.366;2023-02-15T05:53:39;15.93;;;9.70;;
14789;SDS011;7486;51.010;10.366;2023-02-15T05:56:08;15.60;;;9.47;;
14789;SDS011;7486;51.010;10.366;2023-02-15T05:58:39;15.90;;;10.47;;
14789;SDS011;7486;51.010;10.366;2023-02-15T06:01:12;16.53;;;10.47;;
14789;SDS011;7486;51.010;10.366;2023-02-15T06:03:40;15.03;;;9.73;;
14789;SDS011;7486;51.010;10.366;2023-02-15T06:06:07;16.37;;;10.07;;
14789;SDS011;7486;51.010;10.366;2023-02-15T06:08:34;15.93;;;9.77;;
14789;SDS011;7486;51.010;10.366;2023-02-15T06:11:02;15.10;;;9.80;;
14789;SDS011;7486;51.010;10.366;2023-02-15T06:13:29;16.00;;;10.00;;
14789;SDS011;7486;51.010;10.366;2023-02-15T06:15:56;14.90;;;10.23;;
14789;SDS011;7486;51.010;10.366;2023-02-15T06:18:22;16.37;;;9.93;;
14789;SDS011;7486;51.010;10.366;2023-02-15T06:20:49;15.63;;;10.40;;
14789;SDS011;7486;51.010;10.366;2023-02-15T06:23:16;15.47;;;9.77;;
14789;SDS011;7486;51.010;10.366;2023-02-15T06:25:44;15.80;;;9.80;;
14789;SDS011;7486;51.010;10.366;2023-02-15T06:28:12;16.03;;;10.20;;
14789;SDS011;7486;51.010;10.366;2023-02-15T06:30:40;15.07;;;9.87;;
14789;SDS011;7486;51.010;10.366;2023-02-15T06:33:06;14.70;;;9.70;;
14789;SDS011;7486;51.010;10.366;2023-02-15T06:35:33;14.90;;;9.83;;
14789;SDS011;7486;51.010;10.366;2023-02-15T06:38:00;15.50;;;10.10;;
14789;SDS011;7486;51.010;10.366;2023-02-15T06:40:26;14.03;;;10.07;;
14789;SDS011;7486;51.010;10.366;2023-02-15T06:42:53;15.17;;;9.87;;
14789;SDS011;7486;51.010;10.366;2023-02-15T06:45:20;15.80;;;10.47;;
14789;SDS011;7486;51.010;10.366;2023-02-15T06:47:47;15.87;;;10.10;;
14789;SDS011;7486;51.010;10.366;2023-02-15T06:50:13;14.73;;;9.97;;
14789;SDS011;7486;51.010;10.366;2023-02-15T06:52:40;14.93;;;9.80;;
14789;SDS011;7486;51.010;10.366;2023-02-15T06:55:07;15.10;;;9.83;;
14789;SDS011;7486;51.010;10.366;2023-02-15T06:57:33;13.77;;;9.00;;
14789;SDS011;7486;51.010;10.366;2023-02-15T07:00:00;14.97;;;9.50;;
14789;SDS011;7486;51.010;10.366;2023-02-15T07:02:27;15.30;;;9.60;;
14789;SDS011;7486;51.010;10.366;2023-02-15T07:04:54;16.43;;;9.50;;
14789;SDS011;7486;51.010;10.366;2023-02-15T07:07:21;14.17;;;9.33;;
14789;SDS011;7486;51.010;10.366;2023-02-15T07:09:48;14.00;;;9.27;;
14789;SDS011;7486;51.010;10.366;2023-02-15T07:12:15;15.47;;;9.23;;
14789;SDS011;7486;51.010;10.366;2023-02-15T07:14:41;14.10;;;8.90;;
14789;SDS011;7486;51.010;10.366;2023-02-15T07:17:08;12.93;;;8.57;;
14789;SDS011;7486;51.010;10.366;2023-02-15T07:19:55;14.37;;;8.93;;
14789;SDS011;7486;51.010;10.366;2023-02-15T07:22:22;14.03;;;9.10;;
14789;SDS011;7486;51.010;10.366;2023-02-15T07:24:49;13.20;;;8.67;;
14789;SDS011;7486;51.010;10.366;2023-02-15T07:27:15;13.40;;;8.60;;
14789;SDS011;7486;51.010;10.366;2023-02-15T07:29:42;13.73;;;9.43;;
14789;SDS011;7486;51.010;10.366;2023-02-15T07:32:09;15.23;;;10.23;;
14789;SDS011;7486;51.010;10.366;2023-02-15T07:34:35;14.17;;;9.20;;
14789;SDS011;7486;51.010;10.366;2023-02-15T07:37:02;14.27;;;9.27;;
14789;SDS011;7486;51.010;10.366;2023-02-15T07:39:29;15.13;;;10.03;;
14789;SDS011;7486;51.010;10.366;2023-02-15T07:41:56;13.30;;;9.33;;
14789;SDS011;7486;51.010;10.366;2023-02-15T07:44:29;13.13;;;8.50;;
14789;SDS011;7486;51.010;10.366;2023-02-15T07:46:55;13.37;;;9.00;;
14789;SDS011;7486;51.010;10.366;2023-02-15T07:49:22;13.30;;;9.07;;
14789;SDS011;7486;51.010;10.366;2023-02-15T07:51:51;12.63;;;8.87;;
14789;SDS011;7486;51.010;10.366;2023-02-15T07:54:18;12.20;;;8.97;;
14789;SDS011;7486;51.010;10.366;2023-02-15T07:57:03;11.43;;;8.27;;
14789;SDS011;7486;51.010;10.366;2023-02-15T07:59:47;13.07;;;8.70;;
14789;SDS011;7486;51.010;10.366;2023-02-15T08:02:17;10.87;;;8.10;;
14789;SDS011;7486;51.010;10.366;2023-02-15T08:04:44;10.20;;;7.53;;
14789;SDS011;7486;51.010;10.366;2023-02-15T08:07:10;9.37;;;7.20;;
14789;SDS011;7486;51.010;10.366;2023-02-15T08:09:38;9.30;;;6.97;;
14789;SDS011;7486;51.010;10.366;2023-02-15T08:12:07;9.53;;;7.13;;
14789;SDS011;7486;51.010;10.366;2023-02-15T08:14:36;8.63;;;6.30;;
14789;SDS011;7486;51.010;10.366;2023-02-15T08:17:03;9.87;;;6.87;;
14789;SDS011;7486;51.010;10.366;2023-02-15T08:19:30;11.17;;;7.73;;
14789;SDS011;7486;51.010;10.366;2023-02-15T08:21:59;8.97;;;6.30;;
14789;SDS011;7486;51.010;10.366;2023-02-15T08:24:29;9.20;;;6.43;;
14789;SDS011;7486;51.010;10.366;2023-02-15T08:26:57;8.63;;;6.57;;
14789;SDS011;7486;51.010;10.366;2023-02-15T08:29:26;8.73;;;6.33;;
14789;SDS011;7486;51.010;10.366;2023-02-15T08:31:57;7.27;;;5.90;;
14789;SDS011;7486;51.010;10.366;2023-02-15T08:34:29;7.63;;;5.77;;
14789;SDS011;7486;51.010;10.366;2023-02-15T08:36:57;7.30;;;5.70;;
14789;SDS011;7486;51.010;10.366;2023-02-15T08:39:24;8.53;;;6.17;;
14789;SDS011;7486;51.010;10.366;2023-02-15T08:41:51;7.43;;;5.57;;
14789;SDS011;7486;51.010;10.366;2023-02-15T08:44:19;7.47;;;5.67;;
14789;SDS011;7486;51.010;10.366;2023-02-15T08:46:47;7.47;;;5.70;;
14789;SDS011;7486;51.010;10.366;2023-02-15T08:49:16;6.63;;;5.17;;
14789;SDS011;7486;51.010;10.366;2023-02-15T08:51:44;6.70;;;5.80;;
14789;SDS011;7486;51.010;10.366;2023-02-15T08:54:13;7.47;;;5.83;;
14789;SDS011;7486;51.010;10.366;2023-02-15T08:56:41;7.67;;;5.67;;
14789;SDS011;7486;51.010;10.366;2023-02-15T08:59:19;8.67;;;6.60;;
14789;SDS011;7486;51.010;10.366;2023-02-15T09:01:49;7.37;;;5.83;;
14789;SDS011;7486;51.010;10.366;2023-02-15T09:04:17;7.67;;;6.30;;
14789;SDS011;7486;51.010;10.366;2023-02-15T09:06:45;7.97;;;6.37;;
14789;SDS011;7486;51.010;10.366;2023-02-15T09:09:14;7.97;;;6.07;;
14789;SDS011;7486;51.010;10.366;2023-02-15T09:11:44;7.17;;;5.97;;
14789;SDS011;7486;51.010;10.366;2023-02-15T09:14:14;7.20;;;5.80;;
14789;SDS011;7486;51.010;10.366;2023-02-15T09:16:45;7.03;;;6.10;;
14789;SDS011;7486;51.010;10.366;2023-02-15T09:19:51;6.90;;;5.43;;
14789;SDS011;7486;51.010;10.366;2023-02-15T09:22:29;7.53;;;5.77;;
14789;SDS011;7486;51.010;10.366;2023-02-15T09:24:59;7.50;;;5.50;;
14789;SDS011;7486;51.010;10.366;2023-02-15T09:27:26;6.93;;;6.00;;
14789;SDS011;7486;51.010;10.366;2023-02-15T09:29:55;7.20;;;5.57;;
14789;SDS011;7486;51.010;10.366;2023-02-15T09:32:23;7.60;;;6.00;;
14789;SDS011;7486;51.010;10.366;2023-02-15T09:34:51;7.80;;;6.17;;
14789;SDS011;7486;51.010;10.366;2023-02-15T09:37:26;7.40;;;6.03;;
14789;SDS011;7486;51.010;10.366;2023-02-15T09:39:54;7.40;;;6.17;;
14789;SDS011;7486;51.010;10.366;2023-02-15T10:04:58;5.53;;;4.40;;
14789;SDS011;7486;51.010;10.366;2023-02-15T10:08:11;5.77;;;4.60;;
14789;SDS011;7486;51.010;10.366;2023-02-15T10:14:07;6.20;;;4.73;;
14789;SDS011;7486;51.010;10.366;2023-02-15T10:17:26;5.20;;;4.07;;
14789;SDS011;7486;51.010;10.366;2023-02-15T10:26:12;4.67;;;3.97;;
14789;SDS011;7486;51.010;10.366;2023-02-15T10:32:04;4.30;;;3.87;;
14789;SDS011;7486;51.010;10.366;2023-02-15T10:57:18;4.00;;;3.60;;
14789;SDS011;7486;51.010;10.366;2023-02-15T11:08:00;4.33;;;3.83;;
14789;SDS011;7486;51.010;10.366;2023-02-15T11:10:34;4.37;;;3.97;;
14789;SDS011;7486;51.010;10.366;2023-02-15T11:13:08;4.53;;;3.70;;
14789;SDS011;7486;51.010;10.366;2023-02-15T11:15:55;4.10;;;3.53;;
14789;SDS011;7486;51.010;10.366;2023-02-15T11:18:36;4.43;;;3.63;;
14789;SDS011;7486;51.010;10.366;2023-02-15T11:21:11;3.60;;;3.30;;
14789;SDS011;7486;51.010;10.366;2023-02-15T11:23:40;4.17;;;3.70;;
14789;SDS011;7486;51.010;10.366;2023-02-15T11:26:12;4.57;;;3.97;;
14789;SDS011;7486;51.010;10.366;2023-02-15T11:28:51;5.97;;;4.40;;
14789;SDS011;7486;51.010;10.366;2023-02-15T11:31:22;4.53;;;3.70;;
14789;SDS011;7486;51.010;10.366;2023-02-15T11:33:51;5.03;;;4.03;;
14789;SDS011;7486;51.010;10.366;2023-02-15T11:36:33;4.20;;;3.63;;
14789;SDS011;7486;51.010;10.366;2023-02-15T11:39:08;4.40;;;3.90;;
14789;SDS011;7486;51.010;10.366;2023-02-15T11:41:38;4.20;;;3.80;;
14789;SDS011;7486;51.010;10.366;2023-02-15T11:44:21;4.93;;;4.00;;
14789;SDS011;7486;51.010;10.366;2023-02-15T11:47:07;6.20;;;4.70;;
14789;SDS011;7486;51.010;10.366;2023-02-15T11:49:37;6.60;;;4.57;;
14789;SDS011;7486;51.010;10.366;2023-02-15T11:52:05;4.90;;;4.40;;
14789;SDS011;7486;51.010;10.366;2023-02-15T11:54:34;5.07;;;4.57;;
14789;SDS011;7486;51.010;10.366;2023-02-15T11:57:11;4.70;;;4.13;;
14789;SDS011;7486;51.010;10.366;2023-02-15T11:59:46;4.87;;;4.20;;
14789;SDS011;7486;51.010;10.366;2023-02-15T12:02:20;4.30;;;3.90;;
14789;SDS011;7486;51.010;10.366;2023-02-15T12:04:52;5.17;;;4.13;;
14789;SDS011;7486;51.010;10.366;2023-02-15T12:07:24;4.37;;;3.97;;
14789;SDS011;7486;51.010;10.366;2023-02-15T12:14:55;4.10;;;3.60;;
14789;SDS011;7486;51.010;10.366;2023-02-15T12:17:24;4.77;;;4.27;;
14789;SDS011;7486;51.010;10.366;2023-02-15T12:19:57;4.87;;;4.00;;
14789;SDS011;7486;51.010;10.366;2023-02-15T12:22:29;4.60;;;4.07;;
14789;SDS011;7486;51.010;10.366;2023-02-15T12:24:59;4.53;;;4.10;;
14789;SDS011;7486;51.010;10.366;2023-02-15T12:27:28;4.60;;;3.93;;
14789;SDS011;7486;51.010;10.366;2023-02-15T12:29:59;4.97;;;4.13;;
14789;SDS011;7486;51.010;10.366;2023-02-15T12:32:31;4.60;;;4.00;;
14789;SDS011;7486;51.010;10.366;2023-02-15T12:35:07;5.20;;;4.30;;
14789;SDS011;7486;51.010;10.366;2023-02-15T12:37:35;5.10;;;4.30;;
14789;SDS011;7486;51.010;10.366;2023-02-15T12:40:18;5.00;;;4.00;;
14789;SDS011;7486;51.010;10.366;2023-02-15T12:42:57;4.40;;;4.00;;
14789;SDS011;7486;51.010;10.366;2023-02-15T12:48:07;5.40;;;4.10;;
14789;SDS011;7486;51.010;10.366;2023-02-15T12:50:51;4.43;;;3.87;;
14789;SDS011;7486;51.010;10.366;2023-02-15T12:53:31;4.63;;;4.07;;
14789;SDS011;7486;51.010;10.366;2023-02-15T12:56:00;5.47;;;4.47;;
14789;SDS011;7486;51.010;10.366;2023-02-15T12:58:28;4.80;;;4.20;;
14789;SDS011;7486;51.010;10.366;2023-02-15T13:03:51;7.03;;;4.50;;
14789;SDS011;7486;51.010;10.366;2023-02-15T13:06:23;5.67;;;4.87;;
14789;SDS011;7486;51.010;10.366;2023-02-15T13:08:51;4.80;;;4.40;;
14789;SDS011;7486;51.010;10.366;2023-02-15T13:11:21;4.80;;;4.30;;
14789;SDS011;7486;51.010;10.366;2023-02-15T13:16:27;7.97;;;4.53;;
14789;SDS011;7486;51.010;10.366;2023-02-15T13:18:55;5.77;;;4.70;;
14789;SDS011;7486;51.010;10.366;2023-02-15T13:21:26;6.13;;;5.00;;
14789;SDS011;7486;51.010;10.366;2023-02-15T13:24:02;6.57;;;5.43;;
14789;SDS011;7486;51.010;10.366;2023-02-15T13:26:34;5.80;;;4.97;;
14789;SDS011;7486;51.010;10.366;2023-02-15T13:29:48;6.33;;;5.00;;
14789;SDS011;7486;51.010;10.366;2023-02-15T13:31:57;5.27;;;4.60;;
14789;SDS011;7486;51.010;10.366;2023-02-15T13:34:37;6.77;;;5.13;;
14789;SDS011;7486;51.010;10.366;2023-02-15T13:39:55;6.03;;;5.10;;
14789;SDS011;7486;51.010;10.366;2023-02-15T13:42:33;6.60;;;4.97;;
14789;SDS011;7486;51.010;10.366;2023-02-15T13:48:11;6.43;;;5.43;;
14789;SDS011;7486;51.010;10.366;2023-02-15T13:55:54;6.80;;;5.43;;
14789;SDS011;7486;51.010;10.366;2023-02-15T13:58:30;6.80;;;5.03;;
14789;SDS011;7486;51.010;10.366;2023-02-15T14:06:45;6.13;;;5.47;;
14789;SDS011;7486;51.010;10.366;2023-02-15T14:09:28;6.33;;;5.27;;
14789;SDS011;7486;51.010;10.366;2023-02-15T14:17:46;7.00;;;5.90;;
14789;SDS011;7486;51.010;10.366;2023-02-15T14:23:27;6.17;;;5.57;;
14789;SDS011;7486;51.010;10.366;2023-02-15T14:31:30;6.53;;;5.63;;
14789;SDS011;7486;51.010;10.366;2023-02-15T14:34:02;6.90;;;6.20;;
14789;SDS011;7486;51.010;10.366;2023-02-15T14:36:29;7.13;;;5.77;;
14789;SDS011;7486;51.010;10.366;2023-02-15T14:41:53;7.50;;;6.10;;
14789;SDS011;7486;51.010;10.366;2023-02-15T14:49:38;8.70;;;6.90;;
14789;SDS011;7486;51.010;10.366;2023-02-15T15:02:17;6.27;;;5.30;;
14789;SDS011;7486;51.010;10.366;2023-02-15T15:07:41;7.73;;;6.03;;
14789;SDS011;7486;51.010;10.366;2023-02-15T15:12:44;7.43;;;5.77;;
14789;SDS011;7486;51.010;10.366;2023-02-15T15:31:02;9.33;;;6.50;;
14789;SDS011;7486;51.010;10.366;2023-02-15T15:39:47;8.00;;;6.27;;
14789;SDS011;7486;51.010;10.366;2023-02-15T15:43:03;7.60;;;6.10;;
14789;SDS011;7486;51.010;10.366;2023-02-15T15:45:56;7.50;;;6.30;;
14789;SDS011;7486;51.010;10.366;2023-02-15T15:48:30;8.27;;;6.27;;
14789;SDS011;7486;51.010;10.366;2023-02-15T15:51:44;7.73;;;6.40;;
14789;SDS011;7486;51.010;10.366;2023-02-15T15:53:58;7.60;;;6.33;;
14789;SDS011;7486;51.010;10.366;2023-02-15T15:56:29;7.67;;;6.40;;
14789;SDS011;7486;51.010;10.366;2023-02-15T15:59:04;8.60;;;6.73;;
14789;SDS011;7486;51.010;10.366;2023-02-15T16:01:43;7.97;;;6.63;;
14789;SDS011;7486;51.010;10.366;2023-02-15T16:04:12;6.97;;;6.20;;
14789;SDS011;7486;51.010;10.366;2023-02-15T16:06:48;10.10;;;7.20;;
14789;SDS011;7486;51.010;10.366;2023-02-15T16:09:22;8.60;;;6.63;;
14789;SDS011;7486;51.010;10.366;2023-02-15T16:11:51;7.47;;;6.50;;
14789;SDS011;7486;51.010;10.366;2023-02-15T16:17:04;9.97;;;6.47;;
14789;SDS011;7486;51.010;10.366;2023-02-15T16:19:37;9.20;;;6.83;;
14789;SDS011;7486;51.010;10.366;2023-02-15T16:22:09;8.53;;;6.70;;
14789;SDS011;7486;51.010;10.366;2023-02-15T16:27:44;7.90;;;6.30;;
14789;SDS011;7486;51.010;10.366;2023-02-15T16:33:14;7.43;;;5.97;;
14789;SDS011;7486;51.010;10.366;2023-02-15T16:38:34;7.77;;;6.67;;
14789;SDS011;7486;51.010;10.366;2023-02-15T16:41:11;8.60;;;6.73;;
14789;SDS011;7486;51.010;10.366;2023-02-15T16:43:38;9.10;;;7.43;;
14789;SDS011;7486;51.010;10.366;2023-02-15T16:46:11;10.37;;;7.90;;
14789;SDS011;7486;51.010;10.366;2023-02-15T16:48:43;10.47;;;7.13;;
14789;SDS011;7486;51.010;10.366;2023-02-15T16:51:20;9.20;;;7.50;;
14789;SDS011;7486;51.010;10.366;2023-02-15T16:53:52;12.07;;;10.37;;
14789;SDS011;7486;51.010;10.366;2023-02-15T16:56:24;10.37;;;8.47;;
14789;SDS011;7486;51.010;10.366;2023-02-15T16:58:54;11.70;;;9.13;;
14789;SDS011;7486;51.010;10.366;2023-02-15T17:01:24;10.20;;;8.57;;
14789;SDS011;7486;51.010;10.366;2023-02-15T17:04:11;13.23;;;10.33;;
14789;SDS011;7486;51.010;10.366;2023-02-15T17:06:39;11.20;;;9.37;;
14789;SDS011;7486;51.010;10.366;2023-02-15T17:09:13;10.83;;;9.23;;
14789;SDS011;7486;51.010;10.366;2023-02-15T17:11:43;11.40;;;9.10;;
14789;SDS011;7486;51.010;10.366;2023-02-15T17:14:11;9.33;;;7.60;;
14789;SDS011;7486;51.010;10.366;2023-02-15T17:16:52;10.40;;;8.60;;
14789;SDS011;7486;51.010;10.366;2023-02-15T17:19:24;11.23;;;8.30;;
14789;SDS011;7486;51.010;10.366;2023-02-15T17:21:58;10.70;;;8.47;;
14789;SDS011;7486;51.010;10.366;2023-02-15T17:24:33;10.63;;;8.07;;
14789;SDS011;7486;51.010;10.366;2023-02-15T17:27:03;9.60;;;7.83;;
14789;SDS011;7486;51.010;10.366;2023-02-15T17:29:37;11.07;;;8.70;;
14789;SDS011;7486;51.010;10.366;2023-02-15T17:32:12;11.13;;;8.40;;
14789;SDS011;7486;51.010;10.366;2023-02-15T17:34:47;11.50;;;8.83;;
14789;SDS011;7486;51.010;10.366;2023-02-15T17:40:35;13.43;;;9.50;;
14789;SDS011;7486;51.010;10.366;2023-02-15T17:42:58;11.53;;;8.67;;
14789;SDS011;7486;51.010;10.366;2023-02-15T17:45:30;10.93;;;8.47;;
14789;SDS011;7486;51.010;10.366;2023-02-15T17:48:00;12.30;;;8.97;;
14789;SDS011;7486;51.010;10.366;2023-02-15T17:50:29;11.47;;;9.43;;
14789;SDS011;7486;51.010;10.366;2023-02-15T17:52:56;12.10;;;9.27;;
14789;SDS011;7486;51.010;10.366;2023-02-15T17:55:24;11.67;;;8.93;;
14789;SDS011;7486;51.010;10.366;2023-02-15T17:57:51;14.77;;;9.67;;
14789;SDS011;7486;51.010;10.366;2023-02-15T18:00:18;12.23;;;9.23;;
14789;SDS011;7486;51.010;10.366;2023-02-15T18:02:44;12.50;;;9.80;;
14789;SDS011;7486;51.010;10.366;2023-02-15T18:05:13;14.80;;;10.23;;
14789;SDS011;7486;51.010;10.366;2023-02-15T18:07:39;11.97;;;9.37;;
14789;SDS011;7486;51.010;10.366;2023-02-15T18:10:16;12.23;;;8.97;;
14789;SDS011;7486;51.010;10.366;2023-02-15T18:12:44;15.27;;;10.63;;
14789;SDS011;7486;51.010;10.366;2023-02-15T18:15:11;12.50;;;9.30;;
14789;SDS011;7486;51.010;10.366;2023-02-15T18:17:42;12.17;;;9.07;;
14789;SDS011;7486;51.010;10.366;2023-02-15T18:22:45;12.30;;;9.10;;
14789;SDS011;7486;51.010;10.366;2023-02-15T18:25:13;14.90;;;10.90;;
14789;SDS011;7486;51.010;10.366;2023-02-15T18:27:41;12.63;;;9.43;;
14789;SDS011;7486;51.010;10.366;2023-02-15T18:30:11;12.23;;;9.00;;